Time;durP1;ratioP1;P1;durP2;ratioP2;P2;SDS_P1;SDS_P2;PMS_P1;PMS_P2;Temp;Humidity;BMP_temperature;BMP_pressure;BME280_temperature;BME280_humidity;BME280_pressure;Samples;Min_cycle;Max_cycle;Signal;HPM_P1;HPM_P2
2022/06/13 00:01:16;;;;;;;10.18;4.18;;;;;;;;;;5040766;28;20459;-91
2022/06/13 00:03:42;;;;;;;10.93;4.53;;;;;;;;;;5044368;28;20055;-87
2022/06/13 00:06:08;;;;;;;13.57;4.18;;;;;;;;;;5044671;28;20416;-92
2022/06/13 00:08:35;;;;;;;6.70;3.60;;;;;;;;;;5045161;28;20044;-93
2022/06/13 00:11:01;;;;;;;7.53;3.95;;;;;;;;;;5046461;28;20131;-87
2022/06/13 00:13:27;;;;;;;11.70;4.03;;;;;;;;;;5050911;28;20037;-92
2022/06/13 00:15:53;;;;;;;9.13;4.05;;;;;;;;;;5053328;28;20044;-89
2022/06/13 00:18:25;;;;;;;8.57;4.07;;;;;;;;;;5075532;28;20040;-89
2022/06/13 00:20:57;;;;;;;9.68;3.90;;;;;;;;;;5060790;28;20440;-90
2022/06/13 00:23:23;;;;;;;8.60;3.58;;;;;;;;;;5055310;28;20485;-87
2022/06/13 00:25:49;;;;;;;9.70;4.20;;;;;;;;;;5056958;28;20488;-87
2022/06/13 00:28:15;;;;;;;9.85;4.13;;;;;;;;;;5057433;28;20138;-89
2022/06/13 00:30:41;;;;;;;11.32;3.42;;;;;;;;;;5053540;28;20048;-87
2022/06/13 00:33:07;;;;;;;11.57;4.88;;;;;;;;;;5072186;28;20044;-90
2022/06/13 00:35:33;;;;;;;9.93;4.47;;;;;;;;;;5049956;28;20044;-89
2022/06/13 00:37:59;;;;;;;13.25;4.53;;;;;;;;;;5049257;28;20063;-88
2022/06/13 00:40:25;;;;;;;11.63;3.65;;;;;;;;;;5049975;28;20060;-90
2022/06/13 00:42:51;;;;;;;7.55;3.90;;;;;;;;;;5050766;28;20048;-90
2022/06/13 00:45:22;;;;;;;11.50;3.90;;;;;;;;;;5051818;28;20093;-86
2022/06/13 00:47:54;;;;;;;8.32;3.97;;;;;;;;;;5053098;28;20101;-84
2022/06/13 00:50:20;;;;;;;11.23;3.78;;;;;;;;;;5044412;28;20039;-84
2022/06/13 00:52:54;;;;;;;7.22;3.53;;;;;;;;;;5047413;28;20036;-88
2022/06/13 00:55:30;;;;;;;11.18;4.78;;;;;;;;;;5048666;28;20040;-88
2022/06/13 00:57:56;;;;;;;11.32;4.55;;;;;;;;;;5046815;28;20108;-87
2022/06/13 01:00:22;;;;;;;12.77;4.45;;;;;;;;;;5047656;28;20063;-90
2022/06/13 01:02:50;;;;;;;9.73;4.38;;;;;;;;;;5048419;28;20071;-89
2022/06/13 01:05:18;;;;;;;8.60;4.18;;;;;;;;;;5045483;28;20048;-88
2022/06/13 01:07:44;;;;;;;13.82;4.60;;;;;;;;;;5047425;28;20044;-89
2022/06/13 01:12:55;;;;;;;14.25;5.38;;;;;;;;;;5062340;28;20032;-85
2022/06/13 01:15:30;;;;;;;15.55;4.35;;;;;;;;;;5049042;28;20044;-89
2022/06/13 01:18:03;;;;;;;17.80;4.85;;;;;;;;;;5046262;28;20045;-85
2022/06/13 01:20:29;;;;;;;8.20;4.35;;;;;;;;;;5047691;28;20040;-87
2022/06/13 01:23:01;;;;;;;12.10;4.35;;;;;;;;;;5046234;28;20400;-85
2022/06/13 01:25:36;;;;;;;10.05;4.18;;;;;;;;;;5065608;28;20048;-89
2022/06/13 01:28:33;;;;;;;8.75;4.03;;;;;;;;;;5050876;28;20124;-88
2022/06/13 01:31:10;;;;;;;7.28;3.78;;;;;;;;;;5048655;28;20044;-87
2022/06/13 01:33:36;;;;;;;15.55;4.43;;;;;;;;;;5052679;28;20400;-85
2022/06/13 01:36:11;;;;;;;10.77;4.03;;;;;;;;;;5044816;28;20119;-86
2022/06/13 01:38:59;;;;;;;9.23;3.92;;;;;;;;;;5048214;28;20044;-86
2022/06/13 01:41:29;;;;;;;11.90;4.88;;;;;;;;;;5047657;28;20049;-87
2022/06/13 01:44:14;;;;;;;10.80;4.80;;;;;;;;;;5064583;28;20037;-91
2022/06/13 02:02:33;;;;;;;14.20;4.10;;;;;;;;;;5035504;28;20066;-89
2022/06/13 02:05:02;;;;;;;9.60;4.35;;;;;;;;;;4995764;28;20038;-87
2022/06/13 02:07:30;;;;;;;8.65;4.43;;;;;;;;;;4994997;28;20033;-89
2022/06/13 02:10:00;;;;;;;9.40;4.30;;;;;;;;;;4994390;28;20029;-89
2022/06/13 02:12:28;;;;;;;9.48;4.57;;;;;;;;;;5001180;28;20561;-88
2022/06/13 02:14:58;;;;;;;10.63;4.43;;;;;;;;;;4994527;28;20513;-88
2022/06/13 02:17:28;;;;;;;9.43;4.82;;;;;;;;;;4994232;28;20060;-88
2022/06/13 02:19:54;;;;;;;7.32;4.35;;;;;;;;;;4995030;28;20045;-84
2022/06/13 02:22:24;;;;;;;14.13;4.32;;;;;;;;;;4994558;28;20046;-84
2022/06/13 02:25:01;;;;;;;10.45;3.90;;;;;;;;;;4990295;28;20045;-85
2022/06/13 02:27:37;;;;;;;12.43;4.68;;;;;;;;;;4992747;28;20045;-89
2022/06/13 02:30:15;;;;;;;10.27;4.95;;;;;;;;;;4991637;28;20113;-88
2022/06/13 02:32:52;;;;;;;12.70;4.90;;;;;;;;;;4988050;28;20445;-89
2022/06/13 02:35:38;;;;;;;10.32;5.00;;;;;;;;;;5007241;28;20436;-87
2022/06/13 02:38:07;;;;;;;10.30;4.20;;;;;;;;;;4992750;28;20046;-86
2022/06/13 02:40:35;;;;;;;12.25;5.07;;;;;;;;;;4989731;28;20124;-86
2022/06/13 02:43:12;;;;;;;8.45;4.47;;;;;;;;;;4990219;28;20047;-88
2022/06/13 02:45:42;;;;;;;10.68;4.85;;;;;;;;;;4989246;28;20088;-87
2022/06/13 02:48:12;;;;;;;11.40;5.25;;;;;;;;;;4991012;28;20545;-86
2022/06/13 02:50:57;;;;;;;11.95;5.10;;;;;;;;;;4994571;28;20265;-87
2022/06/13 02:53:30;;;;;;;12.05;5.03;;;;;;;;;;4992945;28;20510;-89
2022/06/13 02:56:07;;;;;;;9.27;4.90;;;;;;;;;;4993078;28;20045;-86
2022/06/13 02:58:36;;;;;;;10.57;5.75;;;;;;;;;;4986834;28;20037;-84
2022/06/13 03:01:16;;;;;;;14.25;5.28;;;;;;;;;;4992780;28;20573;-85
2022/06/13 03:03:49;;;;;;;11.40;4.78;;;;;;;;;;4991031;28;20493;-85
2022/06/13 03:06:22;;;;;;;17.33;5.35;;;;;;;;;;4987805;28;20148;-87
2022/06/13 03:08:51;;;;;;;11.93;4.72;;;;;;;;;;4991120;28;20451;-87
2022/06/13 03:11:20;;;;;;;13.45;5.45;;;;;;;;;;4993128;28;20041;-84
2022/06/13 03:14:05;;;;;;;10.43;4.93;;;;;;;;;;4989569;28;20045;-85
2022/06/13 03:16:33;;;;;;;14.57;4.90;;;;;;;;;;4992374;28;20489;-83
2022/06/13 03:19:22;;;;;;;15.30;5.55;;;;;;;;;;5008434;28;20037;-89
2022/06/13 03:21:50;;;;;;;11.90;5.22;;;;;;;;;;4983827;28;20120;-87
2022/06/13 03:24:29;;;;;;;11.55;5.25;;;;;;;;;;4990499;28;20111;-85
2022/06/13 03:26:58;;;;;;;11.75;5.07;;;;;;;;;;4986961;28;20038;-83
2022/06/13 03:29:29;;;;;;;11.32;4.68;;;;;;;;;;4989580;28;20041;-85
2022/06/13 03:31:57;;;;;;;11.65;5.85;;;;;;;;;;4987912;28;20044;-87
2022/06/13 03:34:29;;;;;;;11.07;5.45;;;;;;;;;;4990281;28;20073;-81
2022/06/13 03:37:01;;;;;;;11.80;4.18;;;;;;;;;;4985741;28;20041;-86
2022/06/13 03:39:34;;;;;;;15.77;5.18;;;;;;;;;;4990815;28;20060;-86
2022/06/13 03:42:13;;;;;;;17.55;6.35;;;;;;;;;;4987869;28;20098;-82
2022/06/13 03:44:51;;;;;;;11.68;5.25;;;;;;;;;;4986604;28;20049;-86
2022/06/13 03:47:22;;;;;;;14.07;5.05;;;;;;;;;;4983293;28;20042;-87
2022/06/13 03:49:51;;;;;;;10.18;4.95;;;;;;;;;;4981626;28;20386;-88
2022/06/13 03:52:18;;;;;;;10.93;4.93;;;;;;;;;;4986204;28;20033;-88
2022/06/13 03:54:47;;;;;;;14.85;5.60;;;;;;;;;;4966050;28;20046;-86
2022/06/13 03:57:18;;;;;;;15.30;5.57;;;;;;;;;;4985443;28;20042;-90
2022/06/13 03:59:47;;;;;;;16.55;6.95;;;;;;;;;;4986156;28;20537;-83
2022/06/13 04:02:16;;;;;;;14.18;5.18;;;;;;;;;;4980442;28;20046;-87
2022/06/13 04:04:45;;;;;;;13.98;5.25;;;;;;;;;;4980234;28;20061;-86
2022/06/13 04:07:11;;;;;;;10.15;4.65;;;;;;;;;;4980237;28;20041;-85
2022/06/13 04:09:40;;;;;;;11.80;4.70;;;;;;;;;;4980273;28;20100;-85
2022/06/13 04:12:07;;;;;;;11.73;5.85;;;;;;;;;;4982334;28;20041;-87
2022/06/13 04:14:43;;;;;;;15.88;5.43;;;;;;;;;;4980629;28;20056;-89
2022/06/13 04:17:28;;;;;;;10.23;4.82;;;;;;;;;;4980335;28;20505;-87
2022/06/13 04:19:59;;;;;;;12.30;5.13;;;;;;;;;;4979511;28;20045;-88
2022/06/13 04:22:24;;;;;;;;;;;;;;;;;;4979736;28;20050;-88
2022/06/13 04:25:09;;;;;;;14.50;5.15;;;;;;;;;;4979262;28;19924;-89
2022/06/13 04:27:41;;;;;;;13.65;5.43;;;;;;;;;;4979641;28;20375;-85
2022/06/13 04:30:10;;;;;;;12.30;5.20;;;;;;;;;;4979706;28;20049;-86
2022/06/13 04:32:41;;;;;;;13.10;5.03;;;;;;;;;;4980360;28;20045;-87
2022/06/13 04:35:07;;;;;;;13.98;4.80;;;;;;;;;;4980580;28;20038;-84
2022/06/13 04:37:33;;;;;;;15.63;5.50;;;;;;;;;;4996579;28;20042;-85
2022/06/13 04:40:05;;;;;;;13.70;5.13;;;;;;;;;;4980827;28;20053;-90
2022/06/13 04:42:33;;;;;;;11.57;3.85;;;;;;;;;;4980323;28;20108;-85
2022/06/13 04:45:00;;;;;;;10.25;4.28;;;;;;;;;;4981039;28;20056;-88
2022/06/13 04:47:26;;;;;;;9.65;3.97;;;;;;;;;;4979869;28;20062;-84
2022/06/13 04:49:57;;;;;;;6.95;4.00;;;;;;;;;;4981405;28;20045;-85
2022/06/13 04:52:26;;;;;;;11.60;4.35;;;;;;;;;;4981421;28;20049;-89
2022/06/13 04:54:52;;;;;;;10.77;4.30;;;;;;;;;;4980398;28;20096;-82
2022/06/13 04:57:19;;;;;;;8.85;3.45;;;;;;;;;;4996128;28;20490;-88
2022/06/13 04:59:45;;;;;;;12.52;4.07;;;;;;;;;;4979601;28;20045;-84
2022/06/13 05:02:17;;;;;;;8.98;3.83;;;;;;;;;;4980789;28;20140;-87
2022/06/13 05:04:44;;;;;;;11.32;3.83;;;;;;;;;;4982732;28;20050;-86
2022/06/13 05:07:18;;;;;;;11.65;3.70;;;;;;;;;;4983273;28;20042;-87
2022/06/13 05:09:48;;;;;;;9.77;3.63;;;;;;;;;;4983113;28;20048;-85
2022/06/13 05:12:29;;;;;;;7.22;2.90;;;;;;;;;;4983244;28;20038;-87
2022/06/13 05:14:59;;;;;;;9.02;2.97;;;;;;;;;;4983366;28;20048;-82
2022/06/13 05:17:44;;;;;;;6.97;2.72;;;;;;;;;;4983341;28;20441;-85
2022/06/13 05:20:19;;;;;;;8.60;2.95;;;;;;;;;;4982726;28;20185;-85
2022/06/13 05:22:51;;;;;;;3.92;2.70;;;;;;;;;;4982781;28;20049;-85
2022/06/13 05:25:36;;;;;;;5.97;2.67;;;;;;;;;;4983291;28;20050;-84
2022/06/13 05:28:02;;;;;;;6.05;2.67;;;;;;;;;;4982024;28;20052;-84
2022/06/13 05:30:28;;;;;;;5.93;2.35;;;;;;;;;;4982515;28;20037;-86
2022/06/13 05:32:55;;;;;;;6.07;2.30;;;;;;;;;;4982301;28;20048;-82
2022/06/13 05:35:22;;;;;;;5.00;2.35;;;;;;;;;;4982425;28;20060;-85
2022/06/13 05:37:49;;;;;;;3.42;1.83;;;;;;;;;;4998663;28;20042;-83
2022/06/13 05:40:20;;;;;;;3.88;1.63;;;;;;;;;;4998658;28;20124;-86
2022/06/13 05:42:46;;;;;;;1.98;1.58;;;;;;;;;;4982489;28;20490;-83
2022/06/13 05:45:13;;;;;;;5.25;1.77;;;;;;;;;;4982849;28;20128;-87
2022/06/13 05:47:39;;;;;;;5.10;1.38;;;;;;;;;;4982776;28;20068;-86
2022/06/13 05:50:05;;;;;;;1.98;1.70;;;;;;;;;;4998958;28;20038;-81
2022/06/13 05:52:31;;;;;;;2.25;1.60;;;;;;;;;;4982700;28;20042;-81
2022/06/13 05:54:57;;;;;;;4.22;1.90;;;;;;;;;;4980457;28;20045;-82
2022/06/13 05:57:23;;;;;;;2.45;1.30;;;;;;;;;;4982444;28;20046;-86
2022/06/13 05:59:49;;;;;;;2.80;1.45;;;;;;;;;;4982561;28;20099;-83
2022/06/13 06:02:15;;;;;;;2.20;1.42;;;;;;;;;;4981617;28;20050;-83
2022/06/13 06:04:41;;;;;;;2.00;1.25;;;;;;;;;;4978437;28;20046;-86
2022/06/13 06:07:08;;;;;;;3.42;1.23;;;;;;;;;;4980436;28;20041;-83
2022/06/13 06:09:34;;;;;;;3.50;1.77;;;;;;;;;;4978370;28;20042;-84
2022/06/13 06:12:00;;;;;;;4.60;1.65;;;;;;;;;;4994729;28;20046;-87
2022/06/13 06:14:26;;;;;;;2.78;1.73;;;;;;;;;;4977719;28;20038;-85
2022/06/13 06:16:52;;;;;;;2.47;1.25;;;;;;;;;;4993709;28;20037;-81
2022/06/13 06:19:18;;;;;;;1.42;1.00;;;;;;;;;;4978790;28;20057;-86
2022/06/13 06:21:44;;;;;;;2.60;1.33;;;;;;;;;;4993978;28;20433;-85
2022/06/13 06:24:10;;;;;;;2.13;1.50;;;;;;;;;;4978176;28;20053;-85
2022/06/13 06:26:36;;;;;;;2.35;1.20;;;;;;;;;;4978616;28;20629;-83
2022/06/13 06:29:02;;;;;;;3.92;1.48;;;;;;;;;;4977814;28;20053;-82
2022/06/13 06:31:28;;;;;;;3.20;1.60;;;;;;;;;;4994817;28;20046;-83
2022/06/13 06:33:54;;;;;;;2.88;1.23;;;;;;;;;;4978060;28;20102;-87
2022/06/13 06:36:20;;;;;;;2.47;1.30;;;;;;;;;;4977995;28;20042;-84
2022/06/13 06:38:47;;;;;;;2.47;1.20;;;;;;;;;;4977720;28;20076;-84
2022/06/13 06:41:13;;;;;;;3.38;1.67;;;;;;;;;;4978227;28;20070;-84
2022/06/13 06:43:39;;;;;;;2.45;1.08;;;;;;;;;;4977334;28;20188;-82
2022/06/13 06:46:05;;;;;;;4.70;1.38;;;;;;;;;;4977316;28;20497;-85
2022/06/13 06:48:31;;;;;;;3.08;1.67;;;;;;;;;;4977367;28;20038;-85
2022/06/13 06:50:57;;;;;;;3.92;1.00;;;;;;;;;;4976995;28;20046;-84
2022/06/13 06:53:25;;;;;;;4.72;1.10;;;;;;;;;;4977238;28;20034;-85
2022/06/13 07:01:21;;;;;;;2.85;1.10;;;;;;;;;;4993404;28;20448;-89
2022/06/13 07:03:47;;;;;;;2.35;0.90;;;;;;;;;;4976950;28;20045;-87
2022/06/13 07:06:14;;;;;;;4.10;1.33;;;;;;;;;;4993244;28;20073;-87
2022/06/13 07:08:41;;;;;;;5.90;1.45;;;;;;;;;;4977327;28;20046;-84
2022/06/13 07:13:52;;;;;;;3.78;1.20;;;;;;;;;;4996335;28;20045;-83
2022/06/13 07:16:19;;;;;;;2.22;1.15;;;;;;;;;;4980306;28;20052;-85
2022/06/13 07:18:45;;;;;;;3.28;0.95;;;;;;;;;;4996544;28;20091;-88
2022/06/13 07:21:12;;;;;;;3.42;0.90;;;;;;;;;;4996115;28;20057;-83
2022/06/13 07:23:38;;;;;;;1.77;1.00;;;;;;;;;;4980271;28;20041;-85
2022/06/13 07:26:04;;;;;;;3.55;1.20;;;;;;;;;;4979498;28;20130;-85
2022/06/13 07:28:30;;;;;;;2.97;1.17;;;;;;;;;;4979866;28;20041;-87
2022/06/13 07:30:56;;;;;;;4.50;1.38;;;;;;;;;;4979965;28;20049;-84
2022/06/13 07:33:23;;;;;;;5.05;1.58;;;;;;;;;;4996692;28;20045;-81
2022/06/13 07:35:49;;;;;;;3.03;1.40;;;;;;;;;;4980449;28;20460;-86
2022/06/13 07:38:18;;;;;;;5.05;1.55;;;;;;;;;;4980390;28;20046;-85
2022/06/13 07:40:49;;;;;;;2.80;1.10;;;;;;;;;;4979910;28;20413;-86
2022/06/13 07:43:14;;;;;;;;;;;;;;;;;;4981524;28;20046;-83
2022/06/13 07:45:41;;;;;;;4.32;1.33;;;;;;;;;;4979637;28;19917;-84
2022/06/13 07:48:07;;;;;;;2.63;1.30;;;;;;;;;;4980034;28;20046;-85
2022/06/13 07:50:34;;;;;;;2.92;1.13;;;;;;;;;;4979449;28;20441;-85
2022/06/13 07:53:00;;;;;;;4.22;1.30;;;;;;;;;;4979542;28;20050;-88
2022/06/13 07:55:27;;;;;;;3.95;1.10;;;;;;;;;;4979834;28;20048;-86
2022/06/13 07:57:53;;;;;;;4.03;1.10;;;;;;;;;;4979404;28;20049;-86
2022/06/13 08:00:21;;;;;;;3.72;1.40;;;;;;;;;;4979141;28;20081;-86
2022/06/13 08:02:48;;;;;;;3.13;1.20;;;;;;;;;;4979679;28;20045;-83
2022/06/13 08:05:14;;;;;;;2.55;0.93;;;;;;;;;;4979300;28;20046;-84
2022/06/13 08:07:40;;;;;;;3.63;1.38;;;;;;;;;;4979492;28;20410;-87
2022/06/13 08:10:06;;;;;;;2.92;1.08;;;;;;;;;;4978959;28;20049;-88
2022/06/13 08:12:32;;;;;;;3.25;0.80;;;;;;;;;;4979139;28;20046;-84
2022/06/13 08:14:58;;;;;;;1.75;0.80;;;;;;;;;;4979710;28;20057;-85
2022/06/13 08:17:24;;;;;;;3.72;1.33;;;;;;;;;;4979612;28;20148;-85
2022/06/13 08:19:50;;;;;;;4.57;1.50;;;;;;;;;;4979532;28;20073;-84
2022/06/13 08:22:18;;;;;;;3.22;1.42;;;;;;;;;;4980563;28;20045;-86
2022/06/13 08:24:45;;;;;;;2.35;1.02;;;;;;;;;;4979427;28;20041;-86
2022/06/13 08:27:11;;;;;;;2.92;1.05;;;;;;;;;;4979530;28;20045;-85
2022/06/13 08:29:37;;;;;;;3.20;1.55;;;;;;;;;;4979064;28;20049;-89
2022/06/13 08:32:03;;;;;;;3.92;1.10;;;;;;;;;;4979237;28;20073;-84
2022/06/13 08:34:30;;;;;;;3.13;1.30;;;;;;;;;;4979497;28;20050;-88
2022/06/13 08:36:56;;;;;;;3.55;1.13;;;;;;;;;;4980637;28;20044;-86
2022/06/13 08:39:24;;;;;;;3.00;1.17;;;;;;;;;;4983137;28;20038;-83
2022/06/13 08:41:53;;;;;;;4.45;1.20;;;;;;;;;;4983106;28;20405;-86
2022/06/13 08:44:36;;;;;;;3.38;0.90;;;;;;;;;;4983392;28;20171;-88
2022/06/13 08:47:24;;;;;;;2.60;1.00;;;;;;;;;;4982842;28;20053;-86
2022/06/13 08:50:01;;;;;;;5.97;1.40;;;;;;;;;;4982823;28;20440;-84
2022/06/13 08:52:43;;;;;;;1.65;0.68;;;;;;;;;;4982854;28;20033;-83
2022/06/13 08:55:27;;;;;;;2.75;1.00;;;;;;;;;;4999102;28;20053;-85
2022/06/13 08:58:01;;;;;;;3.33;0.70;;;;;;;;;;4983079;28;20156;-83
2022/06/13 09:00:27;;;;;;;1.40;0.77;;;;;;;;;;4982578;28;20062;-84
2022/06/13 09:03:03;;;;;;;4.38;1.00;;;;;;;;;;4982947;28;20124;-82
2022/06/13 09:05:35;;;;;;;1.60;0.95;;;;;;;;;;4983557;28;20042;-87
2022/06/13 09:08:12;;;;;;;1.95;0.60;;;;;;;;;;4983340;28;20132;-84
2022/06/13 09:10:47;;;;;;;3.00;0.98;;;;;;;;;;4983619;28;20049;-85
2022/06/13 09:13:20;;;;;;;4.30;1.05;;;;;;;;;;4983122;28;20062;-82
2022/06/13 09:15:52;;;;;;;3.45;1.25;;;;;;;;;;4983188;28;20128;-87
2022/06/13 09:18:18;;;;;;;2.95;1.00;;;;;;;;;;4983075;28;20379;-85
2022/06/13 09:20:44;;;;;;;2.90;0.90;;;;;;;;;;4982778;28;20168;-86
2022/06/13 09:23:16;;;;;;;3.10;1.00;;;;;;;;;;4983120;28;20085;-83
2022/06/13 09:25:52;;;;;;;4.00;1.00;;;;;;;;;;4983351;28;20056;-81
2022/06/13 09:28:21;;;;;;;3.35;0.90;;;;;;;;;;4982414;28;20045;-81
2022/06/13 09:30:57;;;;;;;3.03;0.85;;;;;;;;;;4982940;28;20073;-86
2022/06/13 09:33:27;;;;;;;2.22;1.00;;;;;;;;;;4982790;28;20486;-85
2022/06/13 09:35:56;;;;;;;2.88;0.90;;;;;;;;;;4999187;28;20037;-86
2022/06/13 09:38:23;;;;;;;2.80;1.10;;;;;;;;;;4982993;28;20617;-83
2022/06/13 09:40:52;;;;;;;3.95;0.95;;;;;;;;;;4982304;28;20379;-86
2022/06/13 09:43:28;;;;;;;3.35;0.70;;;;;;;;;;4983160;28;20073;-85
2022/06/13 09:46:00;;;;;;;4.82;1.23;;;;;;;;;;4998487;28;20513;-86
2022/06/13 09:48:35;;;;;;;1.67;0.93;;;;;;;;;;4997899;28;20052;-83
2022/06/13 09:51:21;;;;;;;4.63;1.02;;;;;;;;;;4982793;28;20041;-86
2022/06/13 09:53:55;;;;;;;4.43;0.80;;;;;;;;;;4983079;28;20044;-83
2022/06/13 09:56:27;;;;;;;2.38;0.75;;;;;;;;;;4983123;28;20124;-82
2022/06/13 09:58:56;;;;;;;2.13;0.93;;;;;;;;;;4982338;28;20041;-83
2022/06/13 10:01:27;;;;;;;5.05;1.15;;;;;;;;;;4981886;28;20075;-85
2022/06/13 10:04:04;;;;;;;2.00;0.95;;;;;;;;;;4982761;28;20188;-87
2022/06/13 10:06:43;;;;;;;5.38;1.05;;;;;;;;;;4983297;28;20449;-87
2022/06/13 10:09:28;;;;;;;2.45;0.88;;;;;;;;;;4982929;28;20038;-82
2022/06/13 10:12:01;;;;;;;2.42;0.80;;;;;;;;;;4982112;28;20046;-85
2022/06/13 10:14:46;;;;;;;1.52;1.00;;;;;;;;;;4981896;28;20038;-89
2022/06/13 10:17:31;;;;;;;3.08;1.13;;;;;;;;;;4981853;28;20115;-85
2022/06/13 10:20:13;;;;;;;5.95;0.90;;;;;;;;;;4999329;28;20045;-82
2022/06/13 10:22:58;;;;;;;4.55;1.10;;;;;;;;;;4983197;28;20053;-85
2022/06/13 10:25:33;;;;;;;2.97;0.90;;;;;;;;;;4982092;28;20486;-82
2022/06/13 10:28:18;;;;;;;1.38;0.80;;;;;;;;;;4983037;28;20116;-87
2022/06/13 10:31:01;;;;;;;2.65;0.90;;;;;;;;;;4981770;28;20049;-84
2022/06/13 10:33:27;;;;;;;4.00;1.10;;;;;;;;;;4981872;28;20042;-83
2022/06/13 10:36:05;;;;;;;1.63;0.82;;;;;;;;;;4980694;28;20474;-85
2022/06/13 10:38:45;;;;;;;4.07;1.20;;;;;;;;;;4981083;28;20049;-86
2022/06/13 10:41:11;;;;;;;2.92;1.25;;;;;;;;;;4981103;28;20045;-83
2022/06/13 10:43:40;;;;;;;1.70;0.80;;;;;;;;;;4980860;28;20052;-85
2022/06/13 10:46:07;;;;;;;4.80;1.50;;;;;;;;;;4996357;28;20050;-84
2022/06/13 10:48:39;;;;;;;3.97;1.17;;;;;;;;;;4996192;28;20046;-80
2022/06/13 10:51:05;;;;;;;5.10;1.17;;;;;;;;;;4979945;28;20040;-84
2022/06/13 10:53:38;;;;;;;3.47;1.13;;;;;;;;;;4980361;28;20041;-85
2022/06/13 10:56:06;;;;;;;3.67;1.23;;;;;;;;;;4995949;28;20061;-85
2022/06/13 10:58:43;;;;;;;5.43;1.15;;;;;;;;;;4980720;28;20168;-84
2022/06/13 11:01:12;;;;;;;2.95;1.50;;;;;;;;;;4979973;28;20065;-84
2022/06/13 11:03:43;;;;;;;1.65;0.95;;;;;;;;;;4979911;28;20045;-83
2022/06/13 11:06:18;;;;;;;5.45;1.10;;;;;;;;;;4980208;28;20124;-84
2022/06/13 11:08:46;;;;;;;3.60;1.10;;;;;;;;;;4979882;28;20108;-83
2022/06/13 11:11:15;;;;;;;4.22;1.10;;;;;;;;;;4979993;28;20041;-84
2022/06/13 11:13:44;;;;;;;1.42;0.98;;;;;;;;;;4980442;28;20084;-85
2022/06/13 11:24:45;;;;;;;3.35;1.27;;;;;;;;;;5003229;28;20124;-80
2022/06/13 11:30:23;;;;;;;4.20;1.30;;;;;;;;;;5000807;28;20090;-86
2022/06/13 11:32:56;;;;;;;2.63;1.00;;;;;;;;;;4982620;28;20042;-83
2022/06/13 11:35:38;;;;;;;2.47;1.00;;;;;;;;;;4984198;28;20077;-85
2022/06/13 11:38:22;;;;;;;4.03;1.58;;;;;;;;;;4984494;28;20044;-83
2022/06/13 11:40:57;;;;;;;4.43;1.30;;;;;;;;;;4984982;28;20033;-84
2022/06/13 11:43:32;;;;;;;4.65;1.20;;;;;;;;;;5019380;28;20045;-81
2022/06/13 11:45:59;;;;;;;4.43;1.25;;;;;;;;;;4986161;28;21270;-84
2022/06/13 11:48:28;;;;;;;4.30;1.10;;;;;;;;;;4981537;28;20232;-84
2022/06/13 11:50:59;;;;;;;5.13;1.27;;;;;;;;;;5000696;28;20052;-85
2022/06/13 11:53:38;;;;;;;6.32;1.33;;;;;;;;;;4999817;28;20121;-80
2022/06/13 11:56:11;;;;;;;3.00;1.02;;;;;;;;;;4986163;28;20029;-87
2022/06/13 11:58:48;;;;;;;6.60;1.27;;;;;;;;;;4985935;28;20089;-85
2022/06/13 12:01:20;;;;;;;1.95;1.33;;;;;;;;;;4980756;28;20049;-83
2022/06/13 12:03:59;;;;;;;5.05;1.52;;;;;;;;;;4999754;28;20046;-82
2022/06/13 12:06:25;;;;;;;4.85;1.38;;;;;;;;;;4985686;28;20045;-85
2022/06/13 12:09:01;;;;;;;6.75;1.20;;;;;;;;;;4984602;28;20092;-86
2022/06/13 12:11:27;;;;;;;3.53;1.05;;;;;;;;;;4985666;28;20045;-83
2022/06/13 12:13:56;;;;;;;3.28;1.10;;;;;;;;;;4985181;28;20398;-84
2022/06/13 12:16:29;;;;;;;3.30;1.02;;;;;;;;;;4983882;28;20790;-85
2022/06/13 12:19:10;;;;;;;4.40;1.45;;;;;;;;;;4985063;28;20045;-84
2022/06/13 12:21:36;;;;;;;5.47;1.13;;;;;;;;;;4980045;28;20535;-83
2022/06/13 12:24:05;;;;;;;4.80;1.38;;;;;;;;;;4984635;28;20046;-85
2022/06/13 12:26:32;;;;;;;4.18;0.95;;;;;;;;;;4985191;28;20038;-88
2022/06/13 12:29:04;;;;;;;5.88;1.20;;;;;;;;;;4985736;28;20037;-86
2022/06/13 12:31:33;;;;;;;5.30;1.08;;;;;;;;;;4980405;28;20040;-87
2022/06/13 12:34:14;;;;;;;2.38;0.93;;;;;;;;;;5001604;28;20038;-87
2022/06/13 12:36:40;;;;;;;2.28;1.20;;;;;;;;;;4980489;28;20163;-85
2022/06/13 12:39:06;;;;;;;3.47;0.95;;;;;;;;;;4985566;28;20520;-85
2022/06/13 12:41:48;;;;;;;3.58;1.17;;;;;;;;;;4982812;28;20383;-83
2022/06/13 12:44:38;;;;;;;5.35;1.15;;;;;;;;;;4981677;28;20041;-84
2022/06/13 12:47:04;;;;;;;;;;;;;;;;;;4999489;28;20104;-85
2022/06/13 12:49:51;;;;;;;8.07;1.20;;;;;;;;;;4984073;28;19976;-80
2022/06/13 12:52:23;;;;;;;4.85;1.55;;;;;;;;;;4982373;28;20044;-86
2022/06/13 12:54:53;;;;;;;7.47;2.08;;;;;;;;;;4981589;28;20080;-85
2022/06/13 12:57:32;;;;;;;5.60;1.10;;;;;;;;;;4983544;28;20370;-85
2022/06/13 12:59:58;;;;;;;5.43;1.52;;;;;;;;;;4980334;28;20416;-86
2022/06/13 13:02:27;;;;;;;2.97;1.20;;;;;;;;;;4982805;28;20064;-86
2022/06/13 13:05:12;;;;;;;3.95;1.50;;;;;;;;;;4984688;28;20055;-84
2022/06/13 13:07:38;;;;;;;7.72;2.05;;;;;;;;;;5001024;28;20050;-84
2022/06/13 13:10:04;;;;;;;3.28;1.17;;;;;;;;;;4983187;28;20069;-83
2022/06/13 13:12:41;;;;;;;3.45;1.20;;;;;;;;;;4982481;28;20525;-85
2022/06/13 13:15:15;;;;;;;3.65;1.45;;;;;;;;;;4983363;28;20042;-87
2022/06/13 13:18:01;;;;;;;3.30;1.00;;;;;;;;;;4984478;28;20577;-83
2022/06/13 13:20:36;;;;;;;5.75;1.85;;;;;;;;;;4983636;28;20042;-83
2022/06/13 13:23:21;;;;;;;5.30;1.15;;;;;;;;;;4983113;28;20097;-89
2022/06/13 13:26:06;;;;;;;2.75;0.80;;;;;;;;;;4989317;28;20048;-86
2022/06/13 13:28:43;;;;;;;3.88;1.40;;;;;;;;;;4987847;28;20046;-83
2022/06/13 13:31:12;;;;;;;2.92;1.20;;;;;;;;;;4986025;28;20060;-82
2022/06/13 13:33:45;;;;;;;5.97;1.23;;;;;;;;;;4985686;28;20064;-84
2022/06/13 13:36:14;;;;;;;7.72;1.50;;;;;;;;;;4986210;28;20038;-85
2022/06/13 13:38:49;;;;;;;2.95;1.10;;;;;;;;;;4988399;28;20125;-87
2022/06/13 13:41:21;;;;;;;3.15;1.33;;;;;;;;;;4983366;28;20033;-82
2022/06/13 13:43:57;;;;;;;4.55;1.02;;;;;;;;;;4984236;28;20080;-85
2022/06/13 13:46:23;;;;;;;5.13;0.98;;;;;;;;;;4988645;28;20042;-85
2022/06/13 13:48:56;;;;;;;3.40;0.90;;;;;;;;;;4986698;28;20034;-86
2022/06/13 13:51:21;;;;;;;2.47;1.08;;;;;;;;;;4986364;28;20037;-85
2022/06/13 13:54:06;;;;;;;3.03;1.48;;;;;;;;;;4984575;28;20402;-85
2022/06/13 13:56:35;;;;;;;3.13;1.20;;;;;;;;;;5000668;28;20033;-86
2022/06/13 13:59:02;;;;;;;1.90;0.90;;;;;;;;;;4980397;28;20049;-85
2022/06/13 14:01:31;;;;;;;3.95;0.93;;;;;;;;;;4985481;28;20049;-85
2022/06/13 14:04:13;;;;;;;1.77;0.60;;;;;;;;;;4984356;28;20049;-83
2022/06/13 14:07:11;;;;;;;1.98;0.80;;;;;;;;;;4981847;28;20390;-87
2022/06/13 14:09:37;;;;;;;3.15;0.80;;;;;;;;;;4969307;28;20061;-84
2022/06/13 14:12:12;;;;;;;1.58;0.70;;;;;;;;;;4982433;28;20485;-83
2022/06/13 14:14:39;;;;;;;3.13;0.70;;;;;;;;;;4982709;28;20093;-84
2022/06/13 14:17:07;;;;;;;3.97;0.88;;;;;;;;;;4978581;28;20383;-86
2022/06/13 14:19:34;;;;;;;3.28;0.70;;;;;;;;;;4977090;28;20449;-84
2022/06/13 14:22:17;;;;;;;3.63;0.60;;;;;;;;;;4977068;28;20130;-85
2022/06/13 14:24:48;;;;;;;2.88;0.75;;;;;;;;;;4977091;28;20045;-84
2022/06/13 14:27:14;;;;;;;1.80;0.60;;;;;;;;;;4973194;28;20064;-83
2022/06/13 14:29:42;;;;;;;1.38;0.75;;;;;;;;;;4976723;28;20498;-82
2022/06/13 14:32:31;;;;;;;1.92;0.70;;;;;;;;;;4976212;28;20046;-83
2022/06/13 14:35:15;;;;;;;2.42;0.90;;;;;;;;;;4976326;28;20034;-88
2022/06/13 14:37:46;;;;;;;1.58;0.80;;;;;;;;;;4976751;28;20049;-84
2022/06/13 14:40:31;;;;;;;4.15;0.80;;;;;;;;;;4992436;28;20125;-86
2022/06/13 14:43:10;;;;;;;3.35;0.98;;;;;;;;;;4976295;28;20046;-84
2022/06/13 14:45:39;;;;;;;1.35;0.77;;;;;;;;;;4992811;28;20053;-85
2022/06/13 14:48:11;;;;;;;3.10;0.80;;;;;;;;;;4981640;28;20061;-85
2022/06/13 14:50:37;;;;;;;2.83;1.00;;;;;;;;;;4981345;28;20709;-82
2022/06/13 14:53:22;;;;;;;4.07;0.85;;;;;;;;;;4980875;28;20038;-85
2022/06/13 14:56:07;;;;;;;2.22;0.95;;;;;;;;;;4976479;28;20065;-80
2022/06/13 14:58:45;;;;;;;1.58;0.75;;;;;;;;;;4975606;28;20128;-84
2022/06/13 15:01:26;;;;;;;1.98;0.73;;;;;;;;;;4992087;28;20454;-83
2022/06/13 15:04:01;;;;;;;3.30;1.08;;;;;;;;;;4976506;28;20056;-86
2022/06/13 15:06:29;;;;;;;1.58;0.80;;;;;;;;;;4976264;28;20502;-83
2022/06/13 15:08:55;;;;;;;4.10;1.25;;;;;;;;;;4976534;28;20049;-85
2022/06/13 15:11:21;;;;;;;5.05;1.20;;;;;;;;;;4976942;28;20406;-83
2022/06/13 15:13:47;;;;;;;2.95;0.77;;;;;;;;;;4976403;28;20068;-83
2022/06/13 15:16:14;;;;;;;0.75;0.63;;;;;;;;;;4975360;28;20042;-84
2022/06/13 15:18:43;;;;;;;0.70;0.70;;;;;;;;;;4976345;28;20046;-83
2022/06/13 15:21:13;;;;;;;2.55;1.90;;;;;;;;;;4992529;28;20482;-87
2022/06/13 15:23:41;;;;;;;1.75;1.00;;;;;;;;;;4976621;28;20089;-87
2022/06/13 15:26:09;;;;;;;6.97;1.00;;;;;;;;;;4992300;28;20069;-84
2022/06/13 15:28:55;;;;;;;1.75;1.10;;;;;;;;;;4974782;28;20034;-81
2022/06/13 15:31:26;;;;;;;3.72;0.82;;;;;;;;;;4978686;28;20042;-86
2022/06/13 15:34:07;;;;;;;1.35;0.80;;;;;;;;;;5009127;28;20563;-84
2022/06/13 15:36:34;;;;;;;2.38;0.73;;;;;;;;;;4992537;28;20040;-87
2022/06/13 15:39:00;;;;;;;2.13;0.70;;;;;;;;;;4993805;28;20041;-84
2022/06/13 15:41:37;;;;;;;1.10;0.80;;;;;;;;;;4995208;28;20049;-83
2022/06/13 15:44:03;;;;;;;3.95;0.88;;;;;;;;;;4995325;28;20049;-86